createdAt,value
2016-12-18T00:00:50.225Z,98.82
2016-12-18T00:01:50.173Z,98.82
2016-12-18T00:02:49.828Z,98.53
2016-12-18T00:03:49.786Z,98.39
2016-12-18T00:04:50.058Z,99.19
2016-12-18T00:05:50.008Z,99.1
2016-12-18T00:06:49.966Z,99.1
2016-12-18T00:07:49.921Z,98.91
2016-12-18T00:08:49.882Z,99.01
2016-12-18T00:09:49.840Z,98.82
2016-12-18T00:10:49.797Z,98.91
2016-12-18T00:11:49.757Z,98.72
2016-12-18T00:12:49.714Z,98.86
2016-12-18T00:13:49.372Z,98.82
2016-12-18T00:14:49.331Z,98.63
2016-12-18T00:15:49.589Z,98.63
2016-12-18T00:16:49.548Z,98.72
2016-12-18T00:17:49.504Z,98.63
2016-12-18T00:18:49.468Z,98.72
2016-12-18T00:19:49.117Z,98.63
2016-12-18T00:20:49.081Z,98.53
2016-12-18T00:21:49.341Z,98.44
2016-12-18T00:22:49.295Z,98.44
2016-12-18T00:23:48.951Z,98.44
2016-12-18T00:24:49.213Z,98.34
2016-12-18T00:25:49.170Z,98.34
2016-12-18T00:26:48.827Z,98.72
2016-12-18T00:27:49.089Z,98.58
2016-12-18T00:28:49.045Z,98.96
2016-12-18T00:29:49.002Z,99.01
2016-12-18T00:30:48.961Z,98.77
2016-12-18T00:31:48.915Z,99.15
2016-12-18T00:32:48.573Z,98.86
2016-12-18T00:33:48.834Z,99.15
2016-12-18T00:34:48.793Z,99.05
2016-12-18T00:35:48.448Z,99.15
2016-12-18T00:36:48.707Z,98.86
2016-12-18T00:37:48.667Z,99.24
2016-12-18T00:38:48.621Z,99.15
2016-12-18T00:39:48.275Z,99.33
2016-12-18T00:40:48.236Z,99.24
2016-12-18T00:41:48.499Z,99.52
2016-12-18T00:42:48.453Z,99.99
2016-12-18T00:43:48.413Z,99.99
2016-12-18T00:44:48.072Z,99.8
2016-12-18T00:45:48.331Z,99.9
2016-12-18T00:46:48.289Z,99.9
2016-12-18T00:47:48.245Z,99.71
2016-12-18T00:48:48.203Z,99.62
2016-12-18T00:49:48.161Z,99.71
2016-12-18T00:50:48.120Z,99.8
2016-12-18T00:51:47.800Z,99.9
2016-12-18T00:52:48.032Z,99.99
2016-12-18T00:53:47.992Z,99.99
2016-12-18T00:54:47.951Z,99.9
2016-12-18T00:55:47.905Z,99.62
2016-12-18T00:56:47.864Z,99.99
2016-12-18T00:57:47.821Z,99.8
2016-12-18T00:58:47.781Z,99.99
2016-12-18T00:59:47.740Z,99.99
2016-12-18T01:00:47.394Z,99.99
2016-12-18T01:01:47.353Z,99.99
2016-12-18T01:02:47.312Z,99.99
2016-12-18T01:03:47.270Z,99.99
2016-12-18T01:04:47.226Z,99.99
2016-12-18T01:05:47.486Z,99.99
2016-12-18T01:06:47.443Z,99.99
2016-12-18T01:07:47.403Z,99.99
2016-12-18T01:08:47.359Z,99.99
2016-12-18T01:09:47.346Z,99.99
2016-12-18T01:10:47.279Z,99.99
2016-12-18T01:11:47.234Z,99.99
2016-12-18T01:12:47.199Z,99.99
2016-12-18T01:13:47.148Z,99.99
2016-12-18T01:14:46.804Z,99.99
2016-12-18T01:15:46.767Z,99.99
2016-12-18T01:16:47.021Z,99.99
2016-12-18T01:17:46.981Z,99.99
2016-12-18T01:18:46.942Z,99.99
2016-12-18T01:19:46.898Z,99.99
2016-12-18T01:20:46.855Z,99.99
2016-12-18T01:21:46.814Z,99.99
2016-12-18T01:22:46.470Z,99.99
2016-12-18T01:23:46.728Z,99.99
2016-12-18T01:24:46.385Z,99.99
2016-12-18T01:25:46.645Z,99.99
2016-12-18T01:26:46.300Z,99.99
2016-12-18T01:27:46.257Z,99.99
2016-12-18T01:28:46.517Z,99.99
2016-12-18T01:29:46.476Z,99.99
2016-12-18T01:30:46.133Z,99.99
2016-12-18T01:31:46.090Z,99.99
2016-12-18T01:32:46.353Z,99.99
2016-12-18T01:33:46.308Z,99.99
2016-12-18T01:34:46.268Z,99.99
2016-12-18T01:35:46.225Z,99.99
2016-12-18T01:36:45.881Z,99.99
2016-12-18T01:37:46.143Z,99.99
2016-12-18T01:38:46.095Z,99.99
2016-12-18T01:39:45.753Z,99.99
2016-12-18T01:40:46.015Z,99.99
2016-12-18T01:41:45.996Z,99.99
2016-12-18T01:42:45.627Z,99.99
2016-12-18T01:43:45.887Z,99.99
2016-12-18T01:44:45.847Z,99.99
2016-12-18T01:45:45.500Z,99.99
2016-12-18T01:46:45.762Z,99.99
2016-12-18T01:47:45.450Z,99.99
2016-12-18T01:48:45.375Z,99.99
2016-12-18T01:49:45.636Z,99.99
2016-12-18T01:50:45.292Z,99.99
2016-12-18T01:51:45.249Z,99.99
2016-12-18T01:52:45.510Z,99.99
2016-12-18T01:53:45.473Z,99.99
2016-12-18T01:54:45.126Z,99.99
2016-12-18T01:55:45.084Z,99.99
2016-12-18T01:56:45.345Z,99.99
2016-12-18T01:57:44.999Z,99.99
2016-12-18T01:58:45.262Z,99.99
2016-12-18T01:59:44.917Z,99.99
2016-12-18T02:00:45.176Z,99.99
2016-12-18T02:01:45.132Z,99.99
2016-12-18T02:02:45.093Z,99.99
2016-12-18T02:03:45.049Z,99.99
2016-12-18T02:04:44.707Z,99.99
2016-12-18T02:05:44.968Z,99.99
2016-12-18T02:06:44.927Z,99.99
2016-12-18T02:07:44.880Z,99.99
2016-12-18T02:08:44.538Z,99.99
2016-12-18T02:09:45.148Z,99.99
2016-12-18T02:10:44.757Z,99.99
2016-12-18T02:11:44.713Z,99.99
2016-12-18T02:12:44.675Z,99.99
2016-12-18T02:13:44.630Z,99.99
2016-12-18T02:14:44.287Z,99.99
2016-12-18T02:15:44.244Z,99.99
2016-12-18T02:16:44.504Z,99.99
2016-12-18T02:17:44.160Z,99.99
2016-12-18T02:18:44.419Z,99.99
2016-12-18T02:19:44.378Z,99.99
2016-12-18T02:20:44.339Z,99.99
2016-12-18T02:21:44.297Z,99.99
2016-12-18T02:22:44.255Z,99.99
2016-12-18T02:23:44.211Z,99.99
2016-12-18T02:24:44.173Z,99.99
2016-12-18T02:25:44.127Z,99.99
2016-12-18T02:26:43.784Z,99.99
2016-12-18T02:27:44.044Z,99.99
2016-12-18T02:28:44.022Z,99.99
2016-12-18T02:29:43.985Z,99.99
2016-12-18T02:30:43.922Z,99.99
2016-12-18T02:31:43.573Z,99.99
2016-12-18T02:32:43.530Z,99.99
2016-12-18T02:33:43.797Z,99.99
2016-12-18T02:34:43.748Z,99.99
2016-12-18T02:35:43.712Z,99.99
2016-12-18T02:36:43.667Z,99.99
2016-12-18T02:37:43.625Z,99.99
2016-12-18T02:38:43.585Z,99.99
2016-12-18T02:39:43.541Z,99.99
2016-12-18T02:40:43.502Z,99.99
2016-12-18T02:41:43.156Z,99.99
2016-12-18T02:42:43.417Z,99.99
2016-12-18T02:43:43.075Z,99.99
2016-12-18T02:44:43.360Z,99.99
2016-12-18T02:45:42.988Z,99.99
2016-12-18T02:46:42.946Z,99.99
2016-12-18T02:47:42.905Z,99.99
2016-12-18T02:48:42.865Z,99.99
2016-12-18T02:49:42.822Z,99.99
2016-12-18T02:50:43.081Z,99.99
2016-12-18T02:51:43.042Z,99.99
2016-12-18T02:52:43.000Z,99.99
2016-12-18T02:53:42.960Z,99.99
2016-12-18T02:54:42.915Z,99.99
2016-12-18T02:55:42.872Z,99.99
2016-12-18T02:56:42.834Z,99.99
2016-12-18T02:57:42.794Z,99.99
2016-12-18T02:58:42.745Z,99.99
2016-12-18T02:59:42.709Z,99.99
2016-12-18T03:00:42.365Z,99.99
2016-12-18T03:01:42.622Z,99.99
2016-12-18T03:02:42.578Z,99.99
2016-12-18T03:03:42.541Z,99.99
2016-12-18T03:04:42.497Z,99.99
2016-12-18T03:05:42.153Z,99.99
2016-12-18T03:06:42.412Z,99.99
2016-12-18T03:07:42.373Z,99.99
2016-12-18T03:08:42.334Z,99.99
2016-12-18T03:09:41.986Z,99.99
2016-12-18T03:10:42.248Z,99.99
2016-12-18T03:11:42.207Z,99.99
2016-12-18T03:12:41.860Z,99.99
2016-12-18T03:13:42.122Z,99.99
2016-12-18T03:14:41.776Z,99.99
2016-12-18T03:15:42.036Z,99.99
2016-12-18T03:16:41.993Z,99.99
2016-12-18T03:17:41.650Z,99.99
2016-12-18T03:18:41.935Z,99.99
2016-12-18T03:19:41.875Z,99.99
2016-12-18T03:20:41.832Z,99.99
2016-12-18T03:21:41.784Z,99.99
2016-12-18T03:22:41.442Z,99.99
2016-12-18T03:23:41.703Z,99.99
2016-12-18T03:24:41.658Z,99.99
2016-12-18T03:25:41.618Z,99.99
2016-12-18T03:26:41.578Z,99.99
2016-12-18T03:27:41.234Z,99.99
2016-12-18T03:28:41.493Z,99.99
2016-12-18T03:29:41.459Z,99.99
2016-12-18T03:30:41.110Z,99.99
2016-12-18T03:31:41.067Z,99.99
2016-12-18T03:32:41.327Z,99.99
2016-12-18T03:33:41.286Z,99.99
2016-12-18T03:34:41.243Z,99.99
2016-12-18T03:35:40.898Z,99.99
2016-12-18T03:36:41.161Z,99.99
2016-12-18T03:37:41.121Z,99.99
2016-12-18T03:38:41.078Z,99.99
2016-12-18T03:39:41.035Z,99.99
2016-12-18T03:40:40.992Z,99.99
2016-12-18T03:41:40.952Z,99.99
2016-12-18T03:42:40.608Z,99.99
2016-12-18T03:43:40.870Z,99.99
2016-12-18T03:44:40.825Z,99.99
2016-12-18T03:45:40.783Z,99.99
2016-12-18T03:46:40.439Z,99.99
2016-12-18T03:47:40.401Z,99.99
2016-12-18T03:48:40.658Z,99.99
2016-12-18T03:49:40.616Z,99.99
2016-12-18T03:50:40.573Z,99.99
2016-12-18T03:51:40.531Z,99.99
2016-12-18T03:52:40.488Z,99.99
2016-12-18T03:53:40.147Z,99.99
2016-12-18T03:54:40.408Z,99.99
2016-12-18T03:55:40.367Z,99.99
2016-12-18T03:56:40.323Z,99.99
2016-12-18T03:57:40.280Z,99.99
2016-12-18T03:58:40.238Z,99.99
2016-12-18T03:59:40.201Z,99.99
2016-12-18T04:00:40.157Z,99.99
2016-12-18T04:01:40.137Z,99.99
2016-12-18T04:02:40.072Z,99.99
2016-12-18T04:03:40.032Z,99.99
2016-12-18T04:04:39.985Z,99.99
2016-12-18T04:05:39.947Z,99.99
2016-12-18T04:06:39.603Z,99.99
2016-12-18T04:07:39.862Z,99.99
2016-12-18T04:08:39.819Z,99.99
2016-12-18T04:09:39.777Z,99.99
2016-12-18T04:10:39.737Z,99.99
2016-12-18T04:11:39.694Z,99.99
2016-12-18T04:12:39.652Z,99.99
2016-12-18T04:13:39.612Z,99.99
2016-12-18T04:14:39.570Z,99.99
2016-12-18T04:15:39.525Z,99.99
2016-12-18T04:16:39.489Z,99.99
2016-12-18T04:17:39.446Z,99.99
2016-12-18T04:18:39.401Z,99.99
2016-12-18T04:19:39.361Z,99.99
2016-12-18T04:20:39.319Z,99.99
2016-12-18T04:21:39.279Z,99.99
2016-12-18T04:22:39.233Z,99.99
2016-12-18T04:23:38.892Z,99.99
2016-12-18T04:24:39.150Z,99.99
2016-12-18T04:25:39.106Z,99.99
2016-12-18T04:26:39.067Z,99.99
2016-12-18T04:27:39.026Z,99.99
2016-12-18T04:28:38.985Z,99.99
2016-12-18T04:29:38.942Z,99.99
2016-12-18T04:30:38.899Z,99.99
2016-12-18T04:31:38.859Z,99.99
2016-12-18T04:32:38.817Z,99.99
2016-12-18T04:33:38.772Z,99.99
2016-12-18T04:34:38.729Z,99.99
2016-12-18T04:35:38.691Z,99.99
2016-12-18T04:36:38.345Z,99.99
2016-12-18T04:37:38.605Z,99.99
2016-12-18T04:38:38.564Z,99.99
2016-12-18T04:39:38.521Z,99.99
2016-12-18T04:40:38.479Z,99.99
2016-12-18T04:41:38.438Z,99.99
2016-12-18T04:42:38.396Z,99.99
2016-12-18T04:43:38.356Z,99.99
2016-12-18T04:44:38.313Z,99.99
2016-12-18T04:45:38.275Z,99.99
2016-12-18T04:46:38.232Z,99.99
2016-12-18T04:47:38.186Z,99.99
2016-12-18T04:48:37.845Z,99.99
2016-12-18T04:49:37.800Z,99.99
2016-12-18T04:50:38.062Z,99.99
2016-12-18T04:51:37.720Z,99.99
2016-12-18T04:52:37.978Z,99.99
2016-12-18T04:53:37.634Z,99.99
2016-12-18T04:54:37.592Z,99.99
2016-12-18T04:55:37.851Z,99.99
2016-12-18T04:56:37.509Z,99.99
2016-12-18T04:57:37.467Z,99.99
2016-12-18T04:58:37.728Z,99.99
2016-12-18T04:59:37.384Z,99.99
2016-12-18T05:00:37.649Z,99.99
2016-12-18T05:01:37.305Z,99.99
2016-12-18T05:02:37.559Z,99.99
2016-12-18T05:03:37.518Z,99.99
2016-12-18T05:04:37.172Z,99.99
2016-12-18T05:05:37.436Z,99.99
2016-12-18T05:06:37.088Z,99.99
2016-12-18T05:07:37.349Z,99.99
2016-12-18T05:08:37.308Z,99.99
2016-12-18T05:09:37.265Z,99.99
2016-12-18T05:10:37.222Z,99.99
2016-12-18T05:11:36.878Z,99.99
2016-12-18T05:12:37.141Z,99.99
2016-12-18T05:13:37.096Z,99.99
2016-12-18T05:14:37.055Z,99.99
2016-12-18T05:15:37.017Z,99.99
2016-12-18T05:16:36.973Z,99.99
2016-12-18T05:17:36.931Z,99.99
2016-12-18T05:18:36.584Z,99.99
2016-12-18T05:19:36.848Z,99.99
2016-12-18T05:20:36.810Z,99.99
2016-12-18T05:21:36.762Z,99.99
2016-12-18T05:22:36.721Z,99.99
2016-12-18T05:23:36.679Z,99.99
2016-12-18T05:24:36.637Z,99.99
2016-12-18T05:25:36.595Z,99.99
2016-12-18T05:26:36.251Z,99.99
2016-12-18T05:27:36.511Z,99.99
2016-12-18T05:28:36.471Z,99.99
2016-12-18T05:29:36.433Z,99.99
2016-12-18T05:30:36.083Z,99.99
2016-12-18T05:31:36.040Z,99.99
2016-12-18T05:32:36.302Z,99.99
2016-12-18T05:33:36.262Z,99.99
2016-12-18T05:34:36.219Z,99.99
2016-12-18T05:35:36.179Z,99.99
2016-12-18T05:36:36.171Z,99.99
2016-12-18T05:37:35.792Z,99.99
2016-12-18T05:38:36.050Z,99.99
2016-12-18T05:39:35.709Z,99.99
2016-12-18T05:40:35.966Z,99.99
2016-12-18T05:41:35.926Z,99.99
2016-12-18T05:42:35.580Z,99.99
2016-12-18T05:43:35.841Z,99.99
2016-12-18T05:44:35.799Z,99.99
2016-12-18T05:45:35.758Z,99.99
2016-12-18T05:46:35.413Z,99.99
2016-12-18T05:47:35.674Z,99.99
2016-12-18T05:48:35.633Z,99.99
2016-12-18T05:49:35.593Z,99.99
2016-12-18T05:50:35.548Z,99.99
2016-12-18T05:51:35.505Z,99.99
2016-12-18T05:52:35.464Z,99.99
2016-12-18T05:53:35.422Z,99.99
2016-12-18T05:54:35.378Z,99.99
2016-12-18T05:55:35.035Z,99.99
2016-12-18T05:56:35.300Z,99.99
2016-12-18T05:57:35.255Z,99.99
2016-12-18T05:58:35.214Z,99.99
2016-12-18T05:59:35.169Z,99.99
2016-12-18T06:00:35.138Z,99.99
2016-12-18T06:01:35.090Z,99.99
2016-12-18T06:02:34.746Z,99.99
2016-12-18T06:03:34.701Z,99.99
2016-12-18T06:04:34.961Z,99.99
2016-12-18T06:05:34.919Z,99.99
2016-12-18T06:06:34.877Z,99.99
2016-12-18T06:07:34.835Z,99.99
2016-12-18T06:08:34.794Z,99.99
2016-12-18T06:09:34.753Z,99.99
2016-12-18T06:10:34.709Z,99.99
2016-12-18T06:11:34.672Z,99.99
2016-12-18T06:12:34.624Z,99.99
2016-12-18T06:13:34.585Z,99.99
2016-12-18T06:14:34.543Z,99.99
2016-12-18T06:15:34.501Z,99.99
2016-12-18T06:16:34.460Z,99.99
2016-12-18T06:17:34.417Z,99.99
2016-12-18T06:18:34.377Z,99.99
2016-12-18T06:19:34.331Z,99.99
2016-12-18T06:20:34.292Z,99.99
2016-12-18T06:21:34.246Z,99.99
2016-12-18T06:22:33.905Z,99.99
2016-12-18T06:23:34.165Z,99.99
2016-12-18T06:24:34.139Z,99.99
2016-12-18T06:25:34.082Z,99.99
2016-12-18T06:26:34.040Z,99.99
2016-12-18T06:27:34.003Z,99.99
2016-12-18T06:28:33.954Z,99.99
2016-12-18T06:29:33.912Z,99.99
2016-12-18T06:30:33.869Z,99.99
2016-12-18T06:31:33.533Z,99.99
2016-12-18T06:32:33.787Z,99.99
2016-12-18T06:33:33.745Z,99.99
2016-12-18T06:34:33.402Z,99.99
2016-12-18T06:35:33.358Z,99.99
2016-12-18T06:36:33.619Z,99.99
2016-12-18T06:37:33.582Z,99.99
2016-12-18T06:38:33.535Z,99.99
2016-12-18T06:39:33.495Z,99.99
2016-12-18T06:40:33.454Z,99.99
2016-12-18T06:41:33.409Z,99.99
2016-12-18T06:42:33.368Z,99.99
2016-12-18T06:43:33.325Z,99.99
2016-12-18T06:44:33.310Z,99.99
2016-12-18T06:45:33.240Z,99.99
2016-12-18T06:46:33.198Z,99.99
2016-12-18T06:47:33.159Z,99.99
2016-12-18T06:48:32.815Z,99.99
2016-12-18T06:49:33.075Z,99.99
2016-12-18T06:50:32.730Z,99.99
2016-12-18T06:51:32.990Z,99.99
2016-12-18T06:52:32.948Z,99.99
2016-12-18T06:53:32.907Z,99.99
2016-12-18T06:54:32.868Z,99.99
2016-12-18T06:55:32.822Z,99.99
2016-12-18T06:56:32.779Z,99.99
2016-12-18T06:57:32.739Z,99.99
2016-12-18T06:58:32.696Z,99.99
2016-12-18T06:59:32.656Z,99.99
2016-12-18T07:00:32.611Z,99.99
2016-12-18T07:01:32.573Z,99.99
2016-12-18T07:02:32.528Z,99.99
2016-12-18T07:03:32.490Z,99.99
2016-12-18T07:04:32.447Z,99.99
2016-12-18T07:05:32.403Z,99.99
2016-12-18T07:06:32.365Z,99.99
2016-12-18T07:07:32.321Z,99.99
2016-12-18T07:08:32.278Z,99.99
2016-12-18T07:09:32.238Z,99.99
2016-12-18T07:10:32.198Z,99.99
2016-12-18T07:11:32.151Z,99.99
2016-12-18T07:12:32.121Z,99.99
2016-12-18T07:13:32.071Z,99.99
2016-12-18T07:14:32.026Z,99.99
2016-12-18T07:15:31.682Z,99.99
2016-12-18T07:16:31.941Z,99.99
2016-12-18T07:17:31.899Z,99.99
2016-12-18T07:18:31.857Z,99.99
2016-12-18T07:19:31.815Z,99.99
2016-12-18T07:20:31.777Z,99.99
2016-12-18T07:21:31.431Z,99.99
2016-12-18T07:22:31.694Z,99.99
2016-12-18T07:23:31.651Z,99.99
2016-12-18T07:24:31.304Z,99.99
2016-12-18T07:25:31.566Z,99.99
2016-12-18T07:26:31.221Z,99.99
2016-12-18T07:27:31.481Z,99.99
2016-12-18T07:28:31.439Z,99.99
2016-12-18T07:29:31.095Z,99.99
2016-12-18T07:30:31.358Z,99.99
2016-12-18T07:31:31.313Z,99.99
2016-12-18T07:32:31.274Z,99.99
2016-12-18T07:33:31.241Z,99.99
2016-12-18T07:34:31.189Z,99.99
2016-12-18T07:35:31.149Z,99.99
2016-12-18T07:36:31.104Z,99.99
2016-12-18T07:37:31.064Z,99.99
2016-12-18T07:38:30.733Z,99.99
2016-12-18T07:39:30.983Z,99.99
2016-12-18T07:40:30.938Z,99.99
2016-12-18T07:41:30.895Z,99.99
2016-12-18T07:42:30.549Z,99.99
2016-12-18T07:43:30.809Z,99.99
2016-12-18T07:44:30.474Z,99.99
2016-12-18T07:45:30.727Z,99.99
2016-12-18T07:46:30.688Z,99.99
2016-12-18T07:47:30.642Z,99.99
2016-12-18T07:48:30.601Z,99.99
2016-12-18T07:49:30.561Z,99.99
2016-12-18T07:50:30.516Z,99.99
2016-12-18T07:51:30.478Z,99.99
2016-12-18T07:52:30.437Z,99.99
2016-12-18T07:53:30.394Z,99.99
2016-12-18T07:54:30.350Z,99.99
2016-12-18T07:55:30.311Z,99.99
2016-12-18T07:56:30.266Z,99.99
2016-12-18T07:57:30.231Z,99.99
2016-12-18T07:58:30.186Z,99.99
2016-12-18T07:59:29.838Z,99.99
2016-12-18T08:00:29.797Z,99.99
2016-12-18T08:01:30.057Z,99.99
2016-12-18T08:02:30.018Z,99.99
2016-12-18T08:03:29.973Z,99.99
2016-12-18T08:04:29.931Z,99.99
2016-12-18T08:05:29.891Z,99.99
2016-12-18T08:06:29.546Z,99.85
2016-12-18T08:07:29.809Z,99.99
2016-12-18T08:08:29.765Z,99.85
2016-12-18T08:09:29.724Z,99.99
2016-12-18T08:10:29.679Z,99.99
2016-12-18T08:11:29.639Z,99.99
2016-12-18T08:12:29.604Z,99.99
2016-12-18T08:13:29.564Z,99.48
2016-12-18T08:14:29.212Z,99.85
2016-12-18T08:15:29.474Z,99.85
2016-12-18T08:16:29.431Z,99.99
2016-12-18T08:17:29.388Z,99.95
2016-12-18T08:18:29.353Z,98.91
2016-12-18T08:19:29.002Z,99.48
2016-12-18T08:20:29.264Z,99.29
2016-12-18T08:21:29.223Z,98.96
2016-12-18T08:22:28.881Z,98.86
2016-12-18T08:23:29.136Z,98.86
2016-12-18T08:24:29.101Z,99.24
2016-12-18T08:25:29.054Z,98.96
2016-12-18T08:26:29.022Z,98.77
2016-12-18T08:27:28.674Z,98.68
2016-12-18T08:28:28.933Z,98.2
2016-12-18T08:29:28.892Z,97.92
2016-12-18T08:30:28.859Z,97.73
2016-12-18T08:31:28.807Z,98.11
2016-12-18T08:32:28.766Z,98.49
2016-12-18T08:33:28.728Z,98.3
2016-12-18T08:34:28.683Z,98.49
2016-12-18T08:35:28.642Z,98.2
2016-12-18T08:36:28.603Z,98.2
2016-12-18T08:37:28.558Z,98.3
2016-12-18T08:38:28.518Z,98.2
2016-12-18T08:39:28.175Z,98.2
2016-12-18T08:40:28.437Z,98.58
2016-12-18T08:41:28.395Z,98.39
2016-12-18T08:42:28.357Z,98.49
2016-12-18T08:43:28.011Z,98.68
2016-12-18T08:44:28.277Z,97.73
2016-12-18T08:45:28.228Z,98.11
2016-12-18T08:46:28.186Z,97.35
2016-12-18T08:47:28.150Z,97.92
2016-12-18T08:48:28.105Z,97.44
2016-12-18T08:49:27.762Z,97.54
2016-12-18T08:50:28.024Z,96.97
2016-12-18T08:51:27.985Z,97.06
2016-12-18T08:52:27.940Z,97.25
2016-12-18T08:53:27.596Z,96.69
2016-12-18T08:54:27.867Z,96.78
2016-12-18T08:55:27.816Z,96.5
2016-12-18T08:56:27.778Z,96.59
2016-12-18T08:57:27.739Z,96.31
2016-12-18T08:58:27.694Z,95.93
2016-12-18T08:59:27.650Z,96.4
2016-12-18T09:00:27.616Z,96.21
2016-12-18T09:01:27.573Z,95.36
2016-12-18T09:02:27.528Z,95.5
2016-12-18T09:03:27.488Z,95.6
2016-12-18T09:04:27.149Z,94.84
2016-12-18T09:05:27.407Z,95.03
2016-12-18T09:06:27.381Z,94.93
2016-12-18T09:07:27.350Z,94.98
2016-12-18T09:08:27.283Z,95.07
2016-12-18T09:09:27.241Z,94.65
2016-12-18T09:10:27.200Z,94.84
2016-12-18T09:11:27.162Z,95.03
2016-12-18T09:12:27.118Z,94.18
2016-12-18T09:13:27.079Z,94.27
2016-12-18T09:14:27.039Z,94.37
2016-12-18T09:15:26.697Z,94.18
2016-12-18T09:16:26.957Z,93.8
2016-12-18T09:17:26.914Z,93.61
2016-12-18T09:18:26.878Z,93.42
2016-12-18T09:19:26.836Z,92.57
2016-12-18T09:20:26.825Z,92.42
2016-12-18T09:21:26.751Z,91.47
2016-12-18T09:22:26.408Z,91
2016-12-18T09:23:26.367Z,90.15
2016-12-18T09:24:26.631Z,88.92
2016-12-18T09:25:26.592Z,88.54
2016-12-18T09:26:26.551Z,88.16
2016-12-18T09:27:26.528Z,87.97
2016-12-18T09:28:26.470Z,88.16
2016-12-18T09:29:26.432Z,87.87
2016-12-18T09:30:26.389Z,88.25
2016-12-18T09:31:26.046Z,88.82
2016-12-18T09:32:26.310Z,88.73
2016-12-18T09:33:26.268Z,88.92
2016-12-18T09:34:26.231Z,88.73
2016-12-18T09:35:25.925Z,88.44
2016-12-18T09:36:26.149Z,88.54
2016-12-18T09:37:26.110Z,87.77
2016-12-18T09:38:26.069Z,87.06
2016-12-18T09:39:26.031Z,86.11
2016-12-18T09:40:25.990Z,85.49
2016-12-18T09:41:25.960Z,83.12
2016-12-18T09:42:25.908Z,82.59
2016-12-18T09:43:25.885Z,81.65
2016-12-18T09:44:25.829Z,80.98
2016-12-18T09:45:25.807Z,79.79
2016-12-18T09:46:25.756Z,79.22
2016-12-18T09:47:25.414Z,78.74
2016-12-18T09:48:25.677Z,78.83
2016-12-18T09:49:25.637Z,78.51
2016-12-18T09:50:25.296Z,78.61
2016-12-18T09:51:25.559Z,79.46
2016-12-18T09:52:25.519Z,79.8
2016-12-18T09:53:25.482Z,79.8
2016-12-18T09:54:25.442Z,80.37
2016-12-18T09:55:25.100Z,80.56
2016-12-18T09:56:25.367Z,80.65
2016-12-18T09:57:25.324Z,81.47
2016-12-18T09:58:25.287Z,81.66
2016-12-18T09:59:25.248Z,82.04
2016-12-18T10:00:24.909Z,81.75
2016-12-18T10:01:25.175Z,82.32
2016-12-18T10:02:25.131Z,81.94
2016-12-18T10:03:25.126Z,81.37
2016-12-18T10:04:25.058Z,81.56
2016-12-18T10:05:25.017Z,82.23
2016-12-18T10:06:24.976Z,82.04
2016-12-18T10:07:24.638Z,82.04
2016-12-18T10:08:24.904Z,82.13
2016-12-18T10:09:24.860Z,82.79
2016-12-18T10:10:24.821Z,83.17
2016-12-18T10:11:24.478Z,82.98
2016-12-18T10:12:24.745Z,82.32
2016-12-18T10:13:24.703Z,82.51
2016-12-18T10:14:24.666Z,81.94
2016-12-18T10:15:24.626Z,82.04
2016-12-18T10:16:24.586Z,81.32
2016-12-18T10:17:24.553Z,80.75
2016-12-18T10:18:24.515Z,80.94
2016-12-18T10:19:24.170Z,79.99
2016-12-18T10:20:24.432Z,79.71
2016-12-18T10:21:24.394Z,79.04
2016-12-18T10:22:24.356Z,78.03
2016-12-18T10:23:24.013Z,75.89
2016-12-18T10:24:23.977Z,73.61
2016-12-18T10:25:24.240Z,72.99
2016-12-18T10:26:23.901Z,71.75
2016-12-18T10:27:24.164Z,70.83
2016-12-18T10:28:24.123Z,70.07
2016-12-18T10:29:23.784Z,69.02
2016-12-18T10:30:24.051Z,66.39
2016-12-18T10:31:23.711Z,64.37
2016-12-18T10:32:23.978Z,63.23
2016-12-18T10:33:23.938Z,63.39
2016-12-18T10:34:23.903Z,64.62
2016-12-18T10:35:23.863Z,66.39
2016-12-18T10:36:23.524Z,67.41
2016-12-18T10:37:23.790Z,68.17
2016-12-18T10:38:23.769Z,68.84
2016-12-18T10:39:23.412Z,69.94
2016-12-18T10:40:23.681Z,70.13
2016-12-18T10:41:23.345Z,70.89
2016-12-18T10:42:23.608Z,71.75
2016-12-18T10:43:23.570Z,71.52
2016-12-18T10:44:23.532Z,72.09
2016-12-18T10:45:23.495Z,72
2016-12-18T10:46:23.456Z,72.56
2016-12-18T10:47:23.421Z,73.23
2016-12-18T10:48:23.387Z,73.33
2016-12-18T10:49:23.348Z,72.95
2016-12-18T10:50:23.315Z,72.75
2016-12-18T10:51:23.272Z,72.38
2016-12-18T10:52:23.237Z,73.14
2016-12-18T10:53:23.204Z,73.14
2016-12-18T10:54:23.165Z,73.9
2016-12-18T10:55:23.124Z,73.61
2016-12-18T10:56:22.785Z,73.99
2016-12-18T10:57:23.048Z,73.61
2016-12-18T10:58:23.014Z,73.14
2016-12-18T10:59:23.000Z,72.47
2016-12-18T11:00:22.939Z,72.47
2016-12-18T11:01:22.900Z,72.47
2016-12-18T11:02:22.863Z,72.66
2016-12-18T11:03:22.527Z,72.38
2016-12-18T11:04:22.790Z,73.04
2016-12-18T11:05:22.750Z,72.85
2016-12-18T11:06:22.414Z,73.52
2016-12-18T11:07:22.676Z,74.18
2016-12-18T11:08:22.648Z,73.99
2016-12-18T11:09:22.300Z,73.99
2016-12-18T11:10:22.262Z,73.99
2016-12-18T11:11:22.529Z,74.43
2016-12-18T11:12:22.194Z,75.67
2016-12-18T11:13:22.185Z,75.57
2016-12-18T11:14:22.414Z,75.28
2016-12-18T11:15:22.419Z,75.67
2016-12-18T11:16:22.341Z,76.01
2016-12-18T11:17:22.302Z,76.67
2016-12-18T11:18:22.261Z,77.14
2016-12-18T11:19:22.228Z,77.43
2016-12-18T11:20:22.186Z,77.24
2016-12-18T11:21:22.152Z,77.33
2016-12-18T11:22:22.106Z,77.71
2016-12-18T11:23:22.074Z,77.71
2016-12-18T11:24:22.036Z,77.28
2016-12-18T11:25:21.997Z,77.18
2016-12-18T11:26:21.960Z,76.23
2016-12-18T11:27:21.619Z,75.47
2016-12-18T11:28:21.881Z,75.76
2016-12-18T11:29:21.844Z,75.67
2016-12-18T11:30:21.810Z,75.67
2016-12-18T11:31:21.771Z,76.04
2016-12-18T11:32:21.768Z,75.09
2016-12-18T11:33:21.390Z,74.66
2016-12-18T11:34:21.351Z,74.37
2016-12-18T11:35:21.318Z,74.85
2016-12-18T11:36:21.577Z,75.19
2016-12-18T11:37:21.541Z,75.28
2016-12-18T11:38:21.503Z,75.38
2016-12-18T11:39:21.465Z,75.28
2016-12-18T11:40:21.427Z,75
2016-12-18T11:41:21.389Z,75.57
2016-12-18T11:42:21.352Z,75.57
2016-12-18T11:43:21.314Z,75.47
2016-12-18T11:44:21.274Z,75.81
2016-12-18T11:45:21.234Z,76.01
2016-12-18T11:46:20.899Z,76.67
2016-12-18T11:47:21.162Z,77.14
2016-12-18T11:48:21.121Z,77.14
2016-12-18T11:49:21.082Z,77.43
2016-12-18T11:50:21.045Z,77.33
2016-12-18T11:51:21.007Z,78.19
2016-12-18T11:52:20.676Z,77.33
2016-12-18T11:53:20.930Z,77.05
2016-12-18T11:54:20.892Z,77.14
2016-12-18T11:55:20.857Z,77.24
2016-12-18T11:56:20.524Z,77.81
2016-12-18T11:57:20.778Z,78.66
2016-12-18T11:58:20.738Z,78.56
2016-12-18T11:59:20.705Z,78.56
2016-12-18T12:00:20.660Z,78.19
2016-12-18T12:01:20.625Z,78.56
2016-12-18T12:02:20.585Z,78.28
2016-12-18T12:03:20.545Z,78.09
2016-12-18T12:04:20.509Z,78.75
2016-12-18T12:05:20.470Z,78.56
2016-12-18T12:06:20.431Z,78.56
2016-12-18T12:07:20.393Z,78.38
2016-12-18T12:08:20.357Z,78.19
2016-12-18T12:09:20.011Z,78.09
2016-12-18T12:10:19.985Z,78.66
2016-12-18T12:11:20.240Z,78.66
2016-12-18T12:12:20.196Z,78.47
2016-12-18T12:13:19.872Z,79.14
2016-12-18T12:14:20.121Z,79.38
2016-12-18T12:15:19.778Z,80.24
2016-12-18T12:16:19.740Z,79.95
2016-12-18T12:17:20.003Z,80.04
2016-12-18T12:18:19.963Z,79.66
2016-12-18T12:19:19.632Z,79.71
2016-12-18T12:20:19.890Z,79.85
2016-12-18T12:21:19.847Z,79.57
2016-12-18T12:22:19.812Z,79.76
2016-12-18T12:23:19.773Z,80.18
2016-12-18T12:24:19.428Z,79.8
2016-12-18T12:25:19.691Z,79.52
2016-12-18T12:26:19.654Z,79.8
2016-12-18T12:27:19.311Z,79.33
2016-12-18T12:28:19.575Z,79.23
2016-12-18T12:29:19.532Z,78.47
2016-12-18T12:30:19.494Z,79.23
2016-12-18T12:31:19.455Z,79.04
2016-12-18T12:32:19.420Z,79.42
2016-12-18T12:33:19.380Z,78.75
2016-12-18T12:34:19.339Z,78.95
2016-12-18T12:35:19.300Z,79.14
2016-12-18T12:36:19.275Z,79.71
2016-12-18T12:37:18.919Z,79.52
2016-12-18T12:38:18.880Z,79.52
2016-12-18T12:39:19.143Z,79.14
2016-12-18T12:40:19.104Z,79.14
2016-12-18T12:41:18.765Z,79.04
2016-12-18T12:42:19.028Z,79.33
2016-12-18T12:43:18.987Z,79.04
2016-12-18T12:44:18.648Z,79.38
2016-12-18T12:45:18.909Z,79.95
2016-12-18T12:46:18.867Z,80.04
2016-12-18T12:47:18.828Z,80.52
2016-12-18T12:48:18.792Z,80.04
2016-12-18T12:49:18.753Z,80.9
2016-12-18T12:50:18.712Z,80.99
2016-12-18T12:51:18.672Z,81.18
2016-12-18T12:52:18.634Z,81.37
2016-12-18T12:53:18.594Z,81.56